sensor_id;sensor_type;location;lat;lon;timestamp;pressure;altitude;pressure_sealevel;temperature;humidity
44001;BME280;29660;42.892;24.710;2022-11-14T00:04:15;98118.13;;;1.71;100.00
44001;BME280;29660;42.892;24.710;2022-11-14T00:09:36;97811.09;;;-0.11;100.00
44001;BME280;29660;42.892;24.710;2022-11-14T00:14:57;98158.38;;;1.98;100.00
44001;BME280;29660;42.892;24.710;2022-11-14T00:20:18;97968.00;;;0.53;100.00
44001;BME280;29660;42.892;24.710;2022-11-14T00:25:39;97781.75;;;-0.55;100.00
44001;BME280;29660;42.892;24.710;2022-11-14T00:31:00;98067.16;;;1.39;100.00
44001;BME280;29660;42.892;24.710;2022-11-14T00:36:21;98035.38;;;1.20;100.00
44001;BME280;29660;42.892;24.710;2022-11-14T00:41:41;97726.88;;;-0.69;100.00
44001;BME280;29660;42.892;24.710;2022-11-14T00:47:02;97875.53;;;0.24;100.00
44001;BME280;29660;42.892;24.710;2022-11-14T00:52:23;98076.44;;;1.48;100.00
44001;BME280;29660;42.892;24.710;2022-11-14T00:57:43;97905.44;;;0.43;100.00
44001;BME280;29660;42.892;24.710;2022-11-14T01:03:04;97827.81;;;-0.12;100.00
44001;BME280;29660;42.892;24.710;2022-11-14T01:08:24;98053.78;;;1.27;100.00
44001;BME280;29660;42.892;24.710;2022-11-14T01:13:46;97935.72;;;0.53;100.00
44001;BME280;29660;42.892;24.710;2022-11-14T01:19:06;98075.63;;;1.28;100.00
44001;BME280;29660;42.892;24.710;2022-11-14T01:24:27;98094.22;;;1.33;100.00
44001;BME280;29660;42.892;24.710;2022-11-14T01:29:47;97756.50;;;-0.69;100.00
44001;BME280;29660;42.892;24.710;2022-11-14T01:35:08;97996.31;;;0.78;100.00
44001;BME280;29660;42.892;24.710;2022-11-14T01:40:28;98096.47;;;1.42;100.00
44001;BME280;29660;42.892;24.710;2022-11-14T01:45:56;98130.63;;;1.42;100.00
44001;BME280;29660;42.892;24.710;2022-11-14T01:51:30;98039.97;;;0.85;100.00
44001;BME280;29660;42.892;24.710;2022-11-14T01:56:56;97825.41;;;-0.68;100.00
44001;BME280;29660;42.892;24.710;2022-11-14T02:02:20;97859.56;;;-0.42;100.00
44001;BME280;29660;42.892;24.710;2022-11-14T02:07:41;98035.53;;;0.79;100.00
44001;BME280;29660;42.892;24.710;2022-11-14T02:13:01;97961.91;;;0.33;100.00
44001;BME280;29660;42.892;24.710;2022-11-14T02:18:22;98092.41;;;1.27;100.00
44001;BME280;29660;42.892;24.710;2022-11-14T02:23:42;97792.56;;;-0.64;100.00
44001;BME280;29660;42.892;24.710;2022-11-14T02:29:03;97739.66;;;-1.01;100.00
44001;BME280;29660;42.892;24.710;2022-11-14T02:34:25;97806.69;;;-0.65;100.00
44001;BME280;29660;42.892;24.710;2022-11-14T02:39:45;97756.91;;;-1.07;100.00
44001;BME280;29660;42.892;24.710;2022-11-14T02:45:06;97740.19;;;-1.12;100.00
44001;BME280;29660;42.892;24.710;2022-11-14T02:50:27;98017.31;;;0.64;100.00
44001;BME280;29660;42.892;24.710;2022-11-14T02:55:47;98081.63;;;1.02;100.00
44001;BME280;29660;42.892;24.710;2022-11-14T03:01:08;97731.88;;;-1.23;100.00
44001;BME280;29660;42.892;24.710;2022-11-14T03:06:43;98092.66;;;0.77;100.00
44001;BME280;29660;42.892;24.710;2022-11-14T03:12:03;97741.47;;;-1.36;100.00
44001;BME280;29660;42.892;24.710;2022-11-14T03:17:24;97685.72;;;-1.71;100.00
44001;BME280;29660;42.892;24.710;2022-11-14T03:22:44;97767.75;;;-1.16;100.00
44001;BME280;29660;42.892;24.710;2022-11-14T03:28:05;97985.25;;;0.14;100.00
44001;BME280;29660;42.892;24.710;2022-11-14T03:33:25;97964.63;;;0.05;100.00
44001;BME280;29660;42.892;24.710;2022-11-14T03:38:45;97839.41;;;-0.83;100.00
44001;BME280;29660;42.892;24.710;2022-11-14T03:44:06;97790.56;;;-1.04;100.00
44001;BME280;29660;42.892;24.710;2022-11-14T03:49:51;97793.59;;;-1.00;100.00
44001;BME280;29660;42.892;24.710;2022-11-14T03:55:11;97745.03;;;-1.44;100.00
44001;BME280;29660;42.892;24.710;2022-11-14T04:00:32;97758.97;;;-1.37;100.00
44001;BME280;29660;42.892;24.710;2022-11-14T04:05:52;98097.31;;;0.75;100.00
44001;BME280;29660;42.892;24.710;2022-11-14T04:11:13;97658.28;;;-2.10;100.00
44001;BME280;29660;42.892;24.710;2022-11-14T04:16:33;97960.88;;;-0.21;100.00
44001;BME280;29660;42.892;24.710;2022-11-14T04:21:54;98007.56;;;-0.03;100.00
44001;BME280;29660;42.892;24.710;2022-11-14T04:27:14;97786.13;;;-1.38;100.00
44001;BME280;29660;42.892;24.710;2022-11-14T04:32:34;97774.25;;;-1.40;100.00
44001;BME280;29660;42.892;24.710;2022-11-14T04:37:54;97998.91;;;0.03;100.00
44001;BME280;29660;42.892;24.710;2022-11-14T04:43:15;97941.25;;;-0.32;100.00
44001;BME280;29660;42.892;24.710;2022-11-14T04:48:35;97778.16;;;-1.30;100.00
44001;BME280;29660;42.892;24.710;2022-11-14T04:53:56;97861.47;;;-0.70;100.00
44001;BME280;29660;42.892;24.710;2022-11-14T04:59:16;97696.19;;;-1.71;100.00
44001;BME280;29660;42.892;24.710;2022-11-14T05:04:39;97763.06;;;-1.28;100.00
44001;BME280;29660;42.892;24.710;2022-11-14T05:10:00;97741.91;;;-1.33;100.00
44001;BME280;29660;42.892;24.710;2022-11-14T05:15:20;97801.31;;;-0.92;100.00
44001;BME280;29660;42.892;24.710;2022-11-14T05:20:40;97916.72;;;-0.17;100.00
44001;BME280;29660;42.892;24.710;2022-11-14T05:31:23;98102.66;;;0.95;100.00
44001;BME280;29660;42.892;24.710;2022-11-14T05:36:43;98093.72;;;0.83;100.00
44001;BME280;29660;42.892;24.710;2022-11-14T05:42:04;98094.53;;;0.83;100.00
44001;BME280;29660;42.892;24.710;2022-11-14T05:47:25;97130.00;;;-5.16;100.00
44001;BME280;29660;42.892;24.710;2022-11-14T05:52:45;98083.59;;;0.80;100.00
44001;BME280;29660;42.892;24.710;2022-11-14T05:58:05;97739.53;;;-1.21;100.00
44001;BME280;29660;42.892;24.710;2022-11-14T06:03:30;97816.00;;;-0.50;100.00
44001;BME280;29660;42.892;24.710;2022-11-14T06:08:51;98096.81;;;1.06;100.00
44001;BME280;29660;42.892;24.710;2022-11-14T06:14:12;98055.38;;;1.08;100.00
44001;BME280;29660;42.892;24.710;2022-11-14T06:19:32;97730.25;;;-0.82;100.00
44001;BME280;29660;42.892;24.710;2022-11-14T06:24:52;97737.16;;;-0.61;100.00
44001;BME280;29660;42.892;24.710;2022-11-14T06:30:12;97941.22;;;0.91;100.00
44001;BME280;29660;42.892;24.710;2022-11-14T06:35:33;97984.66;;;1.40;100.00
44001;BME280;29660;42.892;24.710;2022-11-14T06:41:02;98080.22;;;2.18;100.00
44001;BME280;29660;42.892;24.710;2022-11-14T06:46:22;97990.63;;;1.93;100.00
44001;BME280;29660;42.892;24.710;2022-11-14T06:51:43;98054.78;;;2.57;100.00
44001;BME280;29660;42.892;24.710;2022-11-14T06:57:03;98051.84;;;2.79;100.00
44001;BME280;29660;42.892;24.710;2022-11-14T07:02:25;97990.66;;;2.77;100.00
44001;BME280;29660;42.892;24.710;2022-11-14T07:07:45;97683.56;;;1.12;100.00
44001;BME280;29660;42.892;24.710;2022-11-14T07:13:05;97704.97;;;1.54;100.00
44001;BME280;29660;42.892;24.710;2022-11-14T07:18:26;97965.75;;;3.54;100.00
44001;BME280;29660;42.892;24.710;2022-11-14T07:23:49;98031.19;;;4.26;100.00
44001;BME280;29660;42.892;24.710;2022-11-14T07:29:09;97944.72;;;4.03;100.00
44001;BME280;29660;42.892;24.710;2022-11-14T07:34:29;97707.22;;;2.76;100.00
44001;BME280;29660;42.892;24.710;2022-11-14T07:39:49;98000.31;;;4.86;100.00
44001;BME280;29660;42.892;24.710;2022-11-14T07:45:10;98042.41;;;5.30;100.00
44001;BME280;29660;42.892;24.710;2022-11-14T07:50:30;97768.13;;;4.01;100.00
44001;BME280;29660;42.892;24.710;2022-11-14T07:55:51;97988.72;;;5.64;100.00
44001;BME280;29660;42.892;24.710;2022-11-14T08:01:12;98047.72;;;6.47;100.00
44001;BME280;29660;42.892;24.710;2022-11-14T08:06:33;97766.84;;;4.92;100.00
44001;BME280;29660;42.892;24.710;2022-11-14T08:11:54;97680.88;;;4.78;100.00
44001;BME280;29660;42.892;24.710;2022-11-14T08:17:14;97931.69;;;6.78;100.00
44001;BME280;29660;42.892;24.710;2022-11-14T08:22:34;97907.16;;;6.87;95.19
44001;BME280;29660;42.892;24.710;2022-11-14T08:27:55;97981.50;;;7.77;93.64
44001;BME280;29660;42.892;24.710;2022-11-14T08:33:15;97656.22;;;6.04;95.45
44001;BME280;29660;42.892;24.710;2022-11-14T08:38:36;98045.81;;;8.56;94.20
44001;BME280;29660;42.892;24.710;2022-11-14T08:43:56;97730.16;;;6.95;90.16
44001;BME280;29660;42.892;24.710;2022-11-14T08:49:16;97754.91;;;7.44;92.04
44001;BME280;29660;42.892;24.710;2022-11-14T08:54:37;98014.72;;;9.38;91.74
44001;BME280;29660;42.892;24.710;2022-11-14T08:59:57;97708.72;;;7.67;88.70
44001;BME280;29660;42.892;24.710;2022-11-14T09:05:18;97882.66;;;9.00;86.30
44001;BME280;29660;42.892;24.710;2022-11-14T09:10:39;97980.16;;;9.86;90.64
44001;BME280;29660;42.892;24.710;2022-11-14T09:16:00;97654.84;;;7.99;92.42
44001;BME280;29660;42.892;24.710;2022-11-14T09:21:21;97991.13;;;10.37;92.58
44001;BME280;29660;42.892;24.710;2022-11-14T09:26:41;97672.59;;;8.68;90.16
44001;BME280;29660;42.892;24.710;2022-11-14T09:32:01;97870.78;;;10.18;90.65
44001;BME280;29660;42.892;24.710;2022-11-14T09:37:21;97903.44;;;10.55;88.44
44001;BME280;29660;42.892;24.710;2022-11-14T09:42:58;97955.53;;;11.19;88.05
44001;BME280;29660;42.892;24.710;2022-11-14T09:48:26;97888.28;;;10.97;86.96
44001;BME280;29660;42.892;24.710;2022-11-14T09:54:22;97906.41;;;11.25;87.24
44001;BME280;29660;42.892;24.710;2022-11-14T09:59:43;97887.44;;;11.27;87.10
44001;BME280;29660;42.892;24.710;2022-11-14T10:05:26;97923.41;;;11.80;85.90
44001;BME280;29660;42.892;24.710;2022-11-14T10:10:55;97943.19;;;12.00;84.51
44001;BME280;29660;42.892;24.710;2022-11-14T10:28:06;97883.34;;;12.40;80.69
44001;BME280;29660;42.892;24.710;2022-11-14T10:39:01;97863.44;;;12.62;81.58
44001;BME280;29660;42.892;24.710;2022-11-14T10:44:31;97863.28;;;12.82;80.13
44001;BME280;29660;42.892;24.710;2022-11-14T10:49:55;97823.69;;;12.79;79.79
44001;BME280;29660;42.892;24.710;2022-11-14T10:55:19;97851.50;;;13.12;79.19
44001;BME280;29660;42.892;24.710;2022-11-14T11:01:39;97851.34;;;13.33;75.92
44001;BME280;29660;42.892;24.710;2022-11-14T11:12:49;97788.03;;;13.13;72.75
44001;BME280;29660;42.892;24.710;2022-11-14T11:23:53;97778.66;;;13.39;75.36
44001;BME280;29660;42.892;24.710;2022-11-14T11:29:15;97745.44;;;13.40;73.97
44001;BME280;29660;42.892;24.710;2022-11-14T11:34:37;97496.31;;;11.88;72.03
44001;BME280;29660;42.892;24.710;2022-11-14T11:40:03;97789.53;;;13.72;72.51
44001;BME280;29660;42.892;24.710;2022-11-14T11:45:24;97807.25;;;14.11;71.17
44001;BME280;29660;42.892;24.710;2022-11-14T11:50:47;97732.72;;;13.70;69.48
44001;BME280;29660;42.892;24.710;2022-11-14T11:56:18;97617.31;;;12.99;66.51
44001;BME280;29660;42.892;24.710;2022-11-14T12:01:41;97780.28;;;14.21;68.05
44001;BME280;29660;42.892;24.710;2022-11-14T12:07:14;97727.09;;;13.90;66.21
44001;BME280;29660;42.892;24.710;2022-11-14T12:24:10;97508.97;;;12.54;70.20
44001;BME280;29660;42.892;24.710;2022-11-14T12:35:19;97696.00;;;13.70;67.46
44001;BME280;29660;42.892;24.710;2022-11-14T12:40:49;97707.72;;;13.74;67.84
44001;BME280;29660;42.892;24.710;2022-11-14T12:46:12;97738.97;;;13.84;67.49
44001;BME280;29660;42.892;24.710;2022-11-14T12:56:58;97800.44;;;13.99;71.33
44001;BME280;29660;42.892;24.710;2022-11-14T13:14:00;97603.41;;;12.55;75.04
44001;BME280;29660;42.892;24.710;2022-11-14T13:19:45;97735.41;;;13.27;77.05
44001;BME280;29660;42.892;24.710;2022-11-14T13:25:35;97653.00;;;12.71;78.61
44001;BME280;29660;42.892;24.710;2022-11-14T13:42:10;97713.84;;;12.60;82.56
44001;BME280;29660;42.892;24.710;2022-11-14T13:53:01;97408.06;;;10.27;85.34
44001;BME280;29660;42.892;24.710;2022-11-14T14:16:33;97786.31;;;11.75;92.30
44001;BME280;29660;42.892;24.710;2022-11-14T14:22:15;97799.31;;;11.37;95.73
44001;BME280;29660;42.892;24.710;2022-11-14T14:33:43;97525.41;;;9.09;98.08
44001;BME280;29660;42.892;24.710;2022-11-14T14:39:19;97735.09;;;9.91;100.00
44001;BME280;29660;42.892;24.710;2022-11-14T14:44:40;97802.00;;;10.09;100.00
44001;BME280;29660;42.892;24.710;2022-11-14T14:50:07;97779.22;;;9.56;100.00
44001;BME280;29660;42.892;24.710;2022-11-14T14:55:34;97495.09;;;7.43;100.00
44001;BME280;29660;42.892;24.710;2022-11-14T15:06:24;97842.13;;;8.88;100.00
44001;BME280;29660;42.892;24.710;2022-11-14T15:11:55;97711.22;;;7.79;100.00
44001;BME280;29660;42.892;24.710;2022-11-14T15:17:17;97840.34;;;8.34;100.00
44001;BME280;29660;42.892;24.710;2022-11-14T15:22:38;97471.88;;;5.81;100.00
44001;BME280;29660;42.892;24.710;2022-11-14T15:27:58;97797.50;;;7.54;100.00
44001;BME280;29660;42.892;24.710;2022-11-14T15:33:30;97691.22;;;6.78;100.00
44001;BME280;29660;42.892;24.710;2022-11-14T15:38:59;97851.72;;;7.58;100.00
44001;BME280;29660;42.892;24.710;2022-11-14T15:44:34;97810.94;;;7.26;100.00
44001;BME280;29660;42.892;24.710;2022-11-14T15:55:31;97844.56;;;7.42;100.00
44001;BME280;29660;42.892;24.710;2022-11-14T16:00:52;97816.81;;;7.28;100.00
44001;BME280;29660;42.892;24.710;2022-11-14T16:06:13;97842.50;;;7.44;100.00
44001;BME280;29660;42.892;24.710;2022-11-14T16:11:33;97508.56;;;5.55;100.00
44001;BME280;29660;42.892;24.710;2022-11-14T16:19:59;97526.13;;;5.78;100.00
44001;BME280;29660;42.892;24.710;2022-11-14T16:25:25;97809.47;;;7.79;100.00
44001;BME280;29660;42.892;24.710;2022-11-14T16:30:45;97862.59;;;8.28;100.00
44001;BME280;29660;42.892;24.710;2022-11-14T16:36:05;97854.34;;;8.51;100.00
44001;BME280;29660;42.892;24.710;2022-11-14T16:41:26;97865.09;;;8.62;100.00
44001;BME280;29660;42.892;24.710;2022-11-14T16:46:47;97502.75;;;6.31;100.00
44001;BME280;29660;42.892;24.710;2022-11-14T16:52:09;97796.56;;;8.15;100.00
44001;BME280;29660;42.892;24.710;2022-11-14T17:00:58;97837.63;;;8.56;100.00
44001;BME280;29660;42.892;24.710;2022-11-14T17:06:19;97571.06;;;6.95;100.00
44001;BME280;29660;42.892;24.710;2022-11-14T17:11:39;97567.84;;;6.93;100.00
44001;BME280;29660;42.892;24.710;2022-11-14T17:17:00;97846.03;;;8.75;100.00
44001;BME280;29660;42.892;24.710;2022-11-14T17:22:23;97545.06;;;6.70;100.00
44001;BME280;29660;42.892;24.710;2022-11-14T17:27:44;97531.38;;;6.78;100.00
44001;BME280;29660;42.892;24.710;2022-11-14T17:33:08;97849.56;;;8.80;100.00
44001;BME280;29660;42.892;24.710;2022-11-14T17:38:34;97827.84;;;8.62;100.00
44001;BME280;29660;42.892;24.710;2022-11-14T17:43:55;97601.19;;;7.37;100.00
44001;BME280;29660;42.892;24.710;2022-11-14T17:49:17;97538.13;;;6.91;100.00
44001;BME280;29660;42.892;24.710;2022-11-14T17:54:37;97813.78;;;8.66;100.00
44001;BME280;29660;42.892;24.710;2022-11-14T17:59:58;97564.34;;;7.14;100.00
44001;BME280;29660;42.892;24.710;2022-11-14T18:05:18;97506.75;;;6.82;100.00
44001;BME280;29660;42.892;24.710;2022-11-14T18:10:39;97824.72;;;8.70;100.00
44001;BME280;29660;42.892;24.710;2022-11-14T18:16:19;97831.56;;;8.60;100.00
44001;BME280;29660;42.892;24.710;2022-11-14T18:21:41;97514.00;;;6.65;100.00
44001;BME280;29660;42.892;24.710;2022-11-14T18:27:02;97549.66;;;6.79;100.00
44001;BME280;29660;42.892;24.710;2022-11-14T18:32:23;97774.25;;;8.16;100.00
44001;BME280;29660;42.892;24.710;2022-11-14T18:37:43;97713.94;;;7.84;100.00
44001;BME280;29660;42.892;24.710;2022-11-14T18:43:03;97596.13;;;7.09;100.00
44001;BME280;29660;42.892;24.710;2022-11-14T18:48:23;97836.88;;;8.60;100.00
44001;BME280;29660;42.892;24.710;2022-11-14T18:53:44;97508.59;;;6.55;100.00
44001;BME280;29660;42.892;24.710;2022-11-14T18:59:05;97448.91;;;6.03;100.00
44001;BME280;29660;42.892;24.710;2022-11-14T19:04:26;97834.44;;;8.54;100.00
44001;BME280;29660;42.892;24.710;2022-11-14T19:09:46;97548.78;;;6.69;100.00
44001;BME280;29660;42.892;24.710;2022-11-14T19:15:08;97501.03;;;6.42;100.00
44001;BME280;29660;42.892;24.710;2022-11-14T19:20:29;97513.56;;;6.51;100.00
44001;BME280;29660;42.892;24.710;2022-11-14T19:25:50;97471.56;;;6.38;100.00
44001;BME280;29660;42.892;24.710;2022-11-14T19:31:10;97820.28;;;8.48;100.00
44001;BME280;29660;42.892;24.710;2022-11-14T19:36:31;97842.66;;;8.52;100.00
44001;BME280;29660;42.892;24.710;2022-11-14T19:42:12;97483.66;;;6.29;100.00
44001;BME280;29660;42.892;24.710;2022-11-14T19:47:35;97761.91;;;8.04;100.00
44001;BME280;29660;42.892;24.710;2022-11-14T19:52:56;97752.25;;;7.93;100.00
44001;BME280;29660;42.892;24.710;2022-11-14T19:58:26;97822.22;;;8.31;100.00
44001;BME280;29660;42.892;24.710;2022-11-14T20:03:59;97497.13;;;6.27;100.00
44001;BME280;29660;42.892;24.710;2022-11-14T20:09:20;97496.56;;;6.03;100.00
44001;BME280;29660;42.892;24.710;2022-11-14T20:14:41;97814.09;;;8.16;100.00
44001;BME280;29660;42.892;24.710;2022-11-14T20:20:01;97506.47;;;6.13;100.00
44001;BME280;29660;42.892;24.710;2022-11-14T20:25:22;97744.00;;;7.62;100.00
44001;BME280;29660;42.892;24.710;2022-11-14T20:30:42;97490.66;;;5.96;100.00
44001;BME280;29660;42.892;24.710;2022-11-14T20:36:07;97440.00;;;5.71;100.00
44001;BME280;29660;42.892;24.710;2022-11-14T20:41:29;97711.97;;;7.47;100.00
44001;BME280;29660;42.892;24.710;2022-11-14T20:46:50;97724.78;;;7.55;100.00
44001;BME280;29660;42.892;24.710;2022-11-14T20:52:10;97786.53;;;7.95;100.00
44001;BME280;29660;42.892;24.710;2022-11-14T20:57:33;97789.66;;;7.86;100.00
44001;BME280;29660;42.892;24.710;2022-11-14T21:02:56;97771.69;;;7.72;100.00
44001;BME280;29660;42.892;24.710;2022-11-14T21:08:17;97444.78;;;5.74;100.00
44001;BME280;29660;42.892;24.710;2022-11-14T21:13:39;97714.00;;;7.40;100.00
44001;BME280;29660;42.892;24.710;2022-11-14T21:19:18;97776.59;;;7.85;100.00
44001;BME280;29660;42.892;24.710;2022-11-14T21:24:38;97700.25;;;7.43;100.00
44001;BME280;29660;42.892;24.710;2022-11-14T21:29:59;97447.56;;;5.84;100.00
44001;BME280;29660;42.892;24.710;2022-11-14T21:35:19;97783.22;;;7.82;100.00
44001;BME280;29660;42.892;24.710;2022-11-14T21:40:39;97657.53;;;7.23;100.00
44001;BME280;29660;42.892;24.710;2022-11-14T21:46:02;97756.06;;;7.75;100.00
44001;BME280;29660;42.892;24.710;2022-11-14T21:51:24;97494.59;;;6.15;100.00
44001;BME280;29660;42.892;24.710;2022-11-14T21:56:45;97370.31;;;5.43;100.00
44001;BME280;29660;42.892;24.710;2022-11-14T22:02:10;97423.56;;;5.69;100.00
44001;BME280;29660;42.892;24.710;2022-11-14T22:07:49;97751.00;;;7.74;100.00
44001;BME280;29660;42.892;24.710;2022-11-14T22:13:09;97509.59;;;6.27;100.00
44001;BME280;29660;42.892;24.710;2022-11-14T22:18:30;97728.47;;;7.76;100.00
44001;BME280;29660;42.892;24.710;2022-11-14T22:23:54;97415.19;;;5.77;100.00
44001;BME280;29660;42.892;24.710;2022-11-14T22:29:15;97712.19;;;7.46;100.00
44001;BME280;29660;42.892;24.710;2022-11-14T22:34:35;97362.81;;;5.35;100.00
44001;BME280;29660;42.892;24.710;2022-11-14T22:39:55;97652.00;;;7.24;100.00
44001;BME280;29660;42.892;24.710;2022-11-14T22:45:15;97697.69;;;7.53;100.00
44001;BME280;29660;42.892;24.710;2022-11-14T22:50:36;97699.03;;;7.29;100.00
44001;BME280;29660;42.892;24.710;2022-11-14T22:55:56;97384.50;;;5.37;100.00
44001;BME280;29660;42.892;24.710;2022-11-14T23:01:19;97660.53;;;7.04;100.00
44001;BME280;29660;42.892;24.710;2022-11-14T23:06:40;97436.25;;;5.66;100.00
44001;BME280;29660;42.892;24.710;2022-11-14T23:12:01;97699.94;;;7.40;100.00
44001;BME280;29660;42.892;24.710;2022-11-14T23:17:21;97407.34;;;5.43;100.00
44001;BME280;29660;42.892;24.710;2022-11-14T23:22:42;97650.56;;;7.11;100.00
44001;BME280;29660;42.892;24.710;2022-11-14T23:28:02;97352.50;;;5.16;100.00
44001;BME280;29660;42.892;24.710;2022-11-14T23:33:23;97692.72;;;7.35;100.00
44001;BME280;29660;42.892;24.710;2022-11-14T23:38:44;97445.94;;;5.78;100.00
44001;BME280;29660;42.892;24.710;2022-11-14T23:44:04;97385.97;;;5.28;100.00
44001;BME280;29660;42.892;24.710;2022-11-14T23:49:24;97434.91;;;5.47;100.00
44001;BME280;29660;42.892;24.710;2022-11-14T23:54:45;97356.03;;;5.05;100.00
